createdAt,value
2023-10-02T16:18:52.365Z,97502.53
2023-10-02T16:21:22.172Z,97508.13
2023-10-02T16:23:52.194Z,97514.47
2023-10-02T16:26:20.331Z,97506.03
2023-10-02T16:28:47.679Z,97498.38
2023-10-02T16:31:26.728Z,97502.06
2023-10-02T16:33:53.496Z,97501.22
2023-10-02T16:36:21.918Z,97500.66
2023-10-02T16:39:03.895Z,97490.00
2023-10-02T16:41:32.434Z,97501.44
2023-10-02T16:43:58.925Z,97493.06
2023-10-02T16:46:25.582Z,97491.34
2023-10-02T16:48:52.030Z,97502.16
2023-10-02T16:51:18.466Z,97501.91
2023-10-02T16:53:45.905Z,97493.53
2023-10-02T16:56:14.909Z,97499.75
2023-10-02T16:58:42.077Z,97498.06
2023-10-02T17:01:10.183Z,97496.38
2023-10-02T17:03:39.830Z,97499.69
2023-10-02T17:06:13.211Z,97505.56
2023-10-02T17:08:42.375Z,97501.91
2023-10-02T17:11:13.423Z,97505.75
2023-10-02T17:13:41.632Z,97512.06
2023-10-02T17:16:09.661Z,97512.94
2023-10-02T17:18:39.969Z,97511.66
2023-10-02T17:21:06.790Z,97510.34
2023-10-02T17:23:34.023Z,97511.59
2023-10-02T17:26:01.297Z,97512.63
2023-10-02T17:28:31.093Z,97514.50
2023-10-02T17:31:00.838Z,97514.91
2023-10-02T17:33:27.228Z,97524.16
2023-10-02T17:35:55.747Z,97514.31
2023-10-02T17:38:23.683Z,97522.78
2023-10-02T17:40:50.826Z,97514.31
2023-10-02T17:43:17.266Z,97513.88
2023-10-02T17:45:43.733Z,97508.19
2023-10-02T17:48:11.932Z,97510.25
2023-10-02T17:50:38.339Z,97501.84
2023-10-02T17:53:04.921Z,97509.69
2023-10-02T17:55:31.335Z,97508.06
2023-10-02T17:57:58.145Z,97502.28
2023-10-02T18:00:24.729Z,97498.41
2023-10-02T18:02:51.623Z,97502.66
2023-10-02T18:05:18.260Z,97490.44
2023-10-02T18:07:45.877Z,97486.53
2023-10-02T18:10:13.967Z,97492.09
2023-10-02T18:12:40.341Z,97490.38
2023-10-02T18:15:10.962Z,97493.78
2023-10-02T18:17:38.197Z,97489.09
2023-10-02T18:20:05.460Z,97495.56
2023-10-02T18:22:32.379Z,97493.25
2023-10-02T18:25:02.017Z,97494.66
2023-10-02T18:27:28.333Z,97485.19
2023-10-02T18:29:54.691Z,97490.25
2023-10-02T18:32:21.859Z,97482.03
2023-10-02T18:34:48.262Z,97487.28
2023-10-02T18:37:14.586Z,97486.41
2023-10-02T18:39:41.431Z,97485.66
2023-10-02T18:42:07.830Z,97479.75
2023-10-02T18:44:35.549Z,97480.84
2023-10-02T18:47:02.144Z,97481.63
2023-10-02T18:49:28.563Z,97485.25
2023-10-02T18:51:54.956Z,97474.97
2023-10-02T18:54:22.477Z,97472.25
2023-10-02T18:56:49.006Z,97474.56
2023-10-02T18:59:15.433Z,97472.81
2023-10-02T19:01:42.454Z,97460.66
2023-10-02T19:04:08.989Z,97473.13
2023-10-02T19:06:35.533Z,97471.72
2023-10-02T19:09:05.769Z,97462.41
2023-10-02T19:11:33.021Z,97467.56
2023-10-02T19:13:59.442Z,97467.56
2023-10-02T19:16:26.150Z,97469.97
2023-10-02T19:18:55.094Z,97468.34
2023-10-02T19:21:22.870Z,97465.53
2023-10-02T19:23:50.555Z,97469.22
2023-10-02T19:26:17.408Z,97460.03
2023-10-02T19:28:43.819Z,97458.00
2023-10-02T19:31:10.210Z,97454.16
2023-10-02T19:33:36.601Z,97451.22
2023-10-02T19:36:04.500Z,97455.81
2023-10-02T19:38:31.959Z,97449.00
2023-10-02T19:40:59.879Z,97451.97
2023-10-02T19:43:26.830Z,97453.41
2023-10-02T19:45:54.082Z,97440.19
2023-10-02T19:48:20.628Z,97435.91
2023-10-02T19:50:47.118Z,97449.34
2023-10-02T19:53:16.752Z,97441.69
2023-10-02T19:55:43.467Z,97427.28
2023-10-02T19:58:10.183Z,97424.88
2023-10-02T20:00:36.925Z,97420.31
2023-10-02T20:03:05.270Z,97420.19
2023-10-02T20:05:32.197Z,97424.34
2023-10-02T20:07:58.909Z,97416.69
2023-10-02T20:10:25.295Z,97408.38
2023-10-02T20:12:51.731Z,97411.66
2023-10-02T20:15:18.110Z,97412.88
2023-10-02T20:17:44.606Z,97406.53
2023-10-02T20:20:11.636Z,97399.22
2023-10-02T20:22:39.152Z,97399.88
2023-10-02T20:25:08.389Z,97395.84
2023-10-02T20:27:35.696Z,97395.50
2023-10-02T20:30:02.601Z,97395.06
2023-10-02T20:32:29.016Z,97388.75
2023-10-02T20:34:55.822Z,97389.41
2023-10-02T20:37:23.314Z,97395.50
2023-10-02T20:39:50.448Z,97386.88
2023-10-02T20:42:17.464Z,97392.44
2023-10-02T20:44:43.928Z,97391.38
2023-10-02T20:47:15.394Z,97397.34
2023-10-02T20:49:43.416Z,97382.31
2023-10-02T20:52:10.332Z,97373.22
2023-10-02T20:54:36.683Z,97365.72
2023-10-02T20:57:04.138Z,97374.97
2023-10-02T20:59:30.504Z,97373.13
2023-10-02T21:01:57.221Z,97381.09
2023-10-02T21:04:23.590Z,97386.66
2023-10-02T21:06:52.211Z,97376.28
2023-10-02T21:09:20.505Z,97377.47
2023-10-02T21:11:46.933Z,97369.84
2023-10-02T21:14:13.356Z,97356.53
2023-10-02T21:16:40.348Z,97363.75
2023-10-02T21:19:06.860Z,97353.03
2023-10-02T21:21:34.028Z,97359.81
2023-10-02T21:24:00.509Z,97353.25
2023-10-02T21:26:28.710Z,97350.97
2023-10-02T21:28:57.046Z,97356.63
2023-10-02T21:31:23.659Z,97348.13
2023-10-02T21:33:53.136Z,97345.19
2023-10-02T21:36:19.519Z,97347.66
2023-10-02T21:38:45.877Z,97343.00
2023-10-02T21:41:18.726Z,97342.88
2023-10-02T21:43:47.066Z,97341.22
2023-10-02T21:46:14.024Z,97331.06
2023-10-02T21:48:41.763Z,97344.28
2023-10-02T21:51:09.309Z,97351.50
2023-10-02T21:53:36.732Z,97342.88
2023-10-02T21:56:03.530Z,97341.44
2023-10-02T21:58:29.872Z,97346.69
2023-10-02T22:01:11.537Z,97344.72
2023-10-02T22:03:39.789Z,97343.28
2023-10-02T22:06:10.056Z,97334.53
2023-10-02T22:08:37.784Z,97337.16
2023-10-02T22:11:05.708Z,97334.53
2023-10-02T22:13:32.819Z,97339.53
2023-10-02T22:15:59.680Z,97334.81
2023-10-02T22:18:26.182Z,97328.19
2023-10-02T22:21:01.770Z,97319.00
2023-10-02T22:23:28.202Z,97321.00
2023-10-02T22:25:57.765Z,97312.59
2023-10-02T22:28:24.097Z,97314.09
2023-10-02T22:30:52.961Z,97307.22
2023-10-02T22:33:19.348Z,97307.66
2023-10-02T22:35:45.918Z,97300.78
2023-10-02T22:38:15.991Z,97294.22
2023-10-02T22:40:42.949Z,97290.41
2023-10-02T22:43:09.302Z,97282.47
2023-10-02T22:45:38.987Z,97282.97
2023-10-02T22:48:06.430Z,97279.28
2023-10-02T22:50:34.163Z,97270.66
2023-10-02T22:53:00.702Z,97268.34
2023-10-02T22:55:27.198Z,97266.63
2023-10-02T22:57:56.753Z,97262.69
2023-10-02T23:00:24.942Z,97267.28
2023-10-02T23:02:54.907Z,97273.41
2023-10-02T23:05:25.234Z,97268.81
2023-10-02T23:07:52.444Z,97274.16
2023-10-02T23:10:19.289Z,97268.50
2023-10-02T23:12:47.056Z,97269.91
2023-10-02T23:15:13.727Z,97260.50
2023-10-02T23:17:40.964Z,97273.41
2023-10-02T23:20:08.072Z,97262.25
2023-10-02T23:22:34.642Z,97258.44
2023-10-02T23:25:04.865Z,97253.66
2023-10-02T23:27:35.829Z,97258.56
2023-10-02T23:30:03.472Z,97248.41
2023-10-02T23:32:31.577Z,97254.41
2023-10-02T23:34:58.002Z,97246.03
2023-10-02T23:37:25.278Z,97247.44
2023-10-02T23:39:51.991Z,97242.88
2023-10-02T23:42:18.509Z,97248.19
2023-10-02T23:44:46.870Z,97243.06
2023-10-02T23:47:15.077Z,97244.59
2023-10-02T23:49:44.749Z,97237.59
2023-10-02T23:52:14.916Z,97230.09
2023-10-02T23:54:46.205Z,97234.22
2023-10-02T23:57:13.691Z,97231.03
2023-10-02T23:59:40.559Z,97221.56
